Time;durP1;ratioP1;P1;durP2;ratioP2;P2;SDS_P1;SDS_P2;PMS_P1;PMS_P2;Temp;Humidity;BMP_temperature;BMP_pressure;BME280_temperature;BME280_humidity;BME280_pressure;Samples;Min_cycle;Max_cycle;Signal;HPM_P1;HPM_P2
2023/10/07 00:01:02;;;;;;;27.45;7.95;;;19.50;99.90;;;20.02;94.39;102039.81;5036943;28;20047;-86
2023/10/07 00:03:32;;;;;;;21.63;8.23;;;19.60;99.90;;;20.01;94.05;102034.50;5052364;28;20048;-86
2023/10/07 00:06:01;;;;;;;25.50;8.60;;;19.50;99.90;;;19.94;93.89;102033.75;5052372;28;20052;-86
2023/10/07 00:08:31;;;;;;;24.23;7.63;;;19.50;99.90;;;19.82;94.29;102006.31;5052272;28;20367;-86
2023/10/07 00:11:00;;;;;;;22.20;8.17;;;19.50;99.90;;;20.02;93.93;102025.50;5052554;28;20124;-85
2023/10/07 00:13:31;;;;;;;20.27;7.22;;;19.50;99.90;;;20.04;93.87;102016.47;5052672;28;20041;-86
2023/10/07 00:16:01;;;;;;;22.17;8.55;;;19.60;99.90;;;20.02;93.89;102018.31;5052089;28;20099;-86
2023/10/07 00:18:34;;;;;;;20.10;7.93;;;19.60;99.90;;;20.01;94.05;102015.69;5052280;28;20053;-85
2023/10/07 00:21:04;;;;;;;22.48;7.60;;;19.60;99.90;;;20.07;93.99;102010.16;5052579;28;20045;-86
2023/10/07 00:23:35;;;;;;;19.30;8.30;;;19.60;99.90;;;19.96;94.05;102007.72;5052122;28;20487;-86
2023/10/07 00:26:07;;;;;;;20.48;7.88;;;19.50;99.90;;;19.98;94.46;102003.19;5052394;28;20053;-86
2023/10/07 00:28:39;;;;;;;25.75;8.45;;;19.50;99.90;;;19.95;94.56;101997.03;5035880;28;20446;-86
2023/10/07 00:31:13;;;;;;;20.67;7.47;;;19.50;99.90;;;19.99;94.49;101987.97;5052325;28;20056;-86
2023/10/07 00:33:52;;;;;;;18.77;7.88;;;19.50;99.90;;;20.04;94.31;101989.63;5052896;28;20493;-86
2023/10/07 00:36:41;;;;;;;23.50;7.85;;;19.60;99.90;;;19.98;94.49;101991.56;5051008;28;20049;-85
2023/10/07 00:39:20;;;;;;;22.35;8.63;;;19.50;99.90;;;19.89;94.86;101987.31;5051920;28;20049;-86
2023/10/07 00:41:54;;;;;;;24.00;8.13;;;19.50;99.90;;;19.92;94.98;101987.22;5052068;28;20079;-86
2023/10/07 00:44:23;;;;;;;19.23;7.68;;;19.40;99.90;;;19.86;95.18;101997.28;5036262;28;20047;-86
2023/10/07 00:47:11;;;;;;;17.83;7.10;;;19.40;99.90;;;19.75;95.42;101984.09;5051781;28;20049;-85
2023/10/07 00:49:50;;;;;;;20.25;8.05;;;19.40;99.90;;;19.91;95.07;102006.97;5055603;28;20299;-86
2023/10/07 00:52:28;;;;;;;18.77;7.03;;;19.40;99.90;;;19.92;95.03;102003.34;5040651;28;20047;-86
2023/10/07 00:57:47;;;;;;;20.95;7.35;;;19.50;99.90;;;19.89;94.69;101998.06;5051453;28;20053;-86
2023/10/07 01:00:40;;;;;;;20.40;7.28;;;19.50;99.90;;;19.87;94.92;101988.28;5055155;28;20105;-86
2023/10/07 01:03:17;;;;;;;19.70;7.13;;;19.40;99.90;;;19.88;94.60;101998.13;5054425;28;20055;-85
2023/10/07 01:06:07;;;;;;;15.15;7.10;;;19.40;99.90;;;19.90;94.61;101994.44;5055420;28;20064;-86
2023/10/07 01:08:37;;;;;;;16.10;6.68;;;19.50;99.90;;;20.01;94.10;101997.78;5055599;28;20422;-86
2023/10/07 01:11:10;;;;;;;17.05;6.13;;;19.60;99.90;;;20.04;93.92;102000.38;5054307;28;20083;-86
2023/10/07 01:13:45;;;;;;;16.83;6.40;;;19.60;99.90;;;20.04;93.79;101997.69;5071054;28;20056;-86
2023/10/07 01:16:24;;;;;;;15.73;6.72;;;19.60;99.90;;;20.07;93.32;102003.00;5055551;28;20091;-86
2023/10/07 01:18:59;;;;;;;19.50;6.20;;;19.60;99.90;;;20.10;93.40;102008.28;5053712;28;20048;-86
2023/10/07 01:21:32;;;;;;;17.75;7.05;;;19.70;99.90;;;20.05;93.42;101995.88;5053910;28;20049;-86
2023/10/07 01:24:06;;;;;;;14.30;6.53;;;19.70;99.90;;;20.12;93.29;101994.78;5053924;28;20079;-86
2023/10/07 01:26:44;;;;;;;18.17;6.63;;;19.70;99.90;;;20.19;92.91;101991.94;5055265;28;20041;-86
2023/10/07 01:29:15;;;;;;;16.67;6.45;;;19.70;99.90;;;20.13;92.84;101991.19;5055251;28;20044;-85
2023/10/07 01:31:59;;;;;;;16.80;7.15;;;19.70;99.90;;;20.09;92.62;101990.38;5055326;28;20455;-85
2023/10/07 01:34:34;;;;;;;18.90;6.78;;;19.70;99.90;;;20.05;92.73;101983.34;5053858;28;20374;-87
2023/10/07 01:37:05;;;;;;;20.15;6.85;;;19.70;99.90;;;20.13;92.68;101978.63;5055027;28;20053;-85
2023/10/07 01:39:40;;;;;;;20.30;7.32;;;19.70;99.90;;;20.22;92.43;101977.56;5053759;28;20053;-86
2023/10/07 01:42:12;;;;;;;17.67;6.90;;;19.80;99.90;;;20.16;92.50;101981.25;5054620;28;20037;-86
2023/10/07 01:44:41;;;;;;;15.50;7.15;;;19.70;99.90;;;20.19;92.27;101975.81;5054505;28;20049;-85
2023/10/07 01:47:23;;;;;;;14.93;6.57;;;19.80;99.90;;;20.23;92.04;101979.28;5054044;28;20051;-85
2023/10/07 01:49:55;;;;;;;17.50;6.45;;;19.80;99.90;;;20.10;92.01;101937.53;5054338;28;20409;-86
2023/10/07 01:52:26;;;;;;;18.20;7.07;;;19.80;99.90;;;20.16;92.30;101970.50;5054316;28;20057;-86
2023/10/07 01:54:58;;;;;;;19.45;7.38;;;19.80;99.90;;;20.24;92.31;101975.72;5054587;28;20040;-85
2023/10/07 01:57:27;;;;;;;17.00;6.35;;;19.80;99.90;;;20.33;92.05;101973.66;5054446;28;20513;-85
2023/10/07 01:59:58;;;;;;;18.17;6.63;;;19.90;99.90;;;20.35;91.94;101971.81;5053450;28;20083;-86
2023/10/07 02:02:26;;;;;;;19.13;6.65;;;19.90;99.90;;;20.26;92.10;101981.94;5054242;28;20140;-81
2023/10/07 02:04:56;;;;;;;16.17;6.80;;;19.90;99.90;;;20.25;91.84;101964.91;5054797;28;20041;-86
2023/10/07 02:07:25;;;;;;;15.63;6.97;;;19.90;99.90;;;20.31;91.73;101969.22;5054224;28;20068;-86
2023/10/07 02:09:56;;;;;;;12.55;6.07;;;19.90;99.90;;;20.32;91.57;101968.31;5054132;28;20053;-87
2023/10/07 02:12:32;;;;;;;19.23;7.05;;;19.90;99.90;;;20.25;91.60;101974.75;5054435;28;20391;-86
2023/10/07 02:15:09;;;;;;;17.65;6.75;;;19.90;99.90;;;20.29;91.81;101968.41;5038531;28;20120;-86
2023/10/07 02:17:38;;;;;;;16.83;7.05;;;19.90;99.90;;;20.36;91.51;101972.69;5066349;28;20049;-83
2023/10/07 02:20:22;;;;;;;26.80;6.75;;;19.90;99.90;;;20.25;91.67;101972.97;5047692;28;20479;-86
2023/10/07 02:22:51;;;;;;;17.63;6.57;;;19.90;99.90;;;20.29;91.65;101966.59;5054101;28;20363;-86
2023/10/07 02:25:26;;;;;;;23.50;7.80;;;19.90;99.90;;;20.28;91.58;101978.28;5061685;28;20060;-86
2023/10/07 02:27:56;;;;;;;19.60;6.78;;;19.90;99.90;;;20.27;91.63;101973.81;5047267;28;20041;-86
2023/10/07 02:30:25;;;;;;;25.50;7.20;;;19.90;99.90;;;20.28;91.62;101962.16;5053989;28;20045;-86
2023/10/07 02:32:54;;;;;;;19.38;7.22;;;19.90;99.90;;;20.30;91.70;101960.31;5052588;28;20049;-84
2023/10/07 02:35:30;;;;;;;16.40;6.95;;;19.90;99.90;;;20.24;91.98;101965.84;5054080;28;20048;-86
2023/10/07 02:38:03;;;;;;;20.50;6.80;;;19.90;99.90;;;20.31;91.82;101962.06;5053954;28;20048;-86
2023/10/07 02:40:48;;;;;;;25.30;7.88;;;19.90;99.90;;;20.30;92.07;101957.63;5053843;28;20052;-85
2023/10/07 02:43:18;;;;;;;18.08;7.15;;;19.90;99.90;;;20.25;92.27;101948.78;5053636;28;20045;-85
2023/10/07 02:45:47;;;;;;;19.13;6.33;;;19.90;99.90;;;20.25;92.38;101955.97;5053400;28;20049;-86
2023/10/07 02:48:18;;;;;;;21.30;6.88;;;19.90;99.90;;;20.31;92.32;101954.00;5053114;28;20314;-86
2023/10/07 02:50:51;;;;;;;18.33;7.18;;;19.90;99.90;;;20.29;92.34;101957.63;5053354;28;20041;-85
2023/10/07 02:53:20;;;;;;;14.70;6.75;;;19.90;99.90;;;20.32;92.31;101957.56;5053486;28;20087;-86
2023/10/07 02:55:54;;;;;;;14.77;5.82;;;19.90;99.90;;;20.41;91.73;101958.22;5051524;28;20136;-86
2023/10/07 02:58:32;;;;;;;23.55;7.40;;;20.00;99.90;;;20.32;92.04;101949.50;5037396;28;20045;-86
2023/10/07 03:01:13;;;;;;;18.05;6.97;;;20.00;99.90;;;20.42;91.84;101945.66;5052631;28;20518;-84
2023/10/07 03:03:48;;;;;;;22.10;6.63;;;20.00;99.90;;;20.44;91.69;101949.19;5053153;28;20049;-86
2023/10/07 03:06:18;;;;;;;19.27;6.70;;;20.00;99.90;;;20.51;91.54;101957.03;5037534;28;20129;-82
2023/10/07 03:08:58;;;;;;;13.60;6.78;;;20.10;99.90;;;20.47;91.57;101949.97;5051705;28;20144;-87
2023/10/07 03:11:39;;;;;;;20.48;7.60;;;20.10;99.90;;;20.45;91.76;101953.63;5052774;28;20482;-81
2023/10/07 03:14:13;;;;;;;22.90;7.70;;;20.10;99.90;;;20.35;92.47;101955.69;5037077;28;20055;-84
2023/10/07 03:16:46;;;;;;;19.33;7.53;;;20.00;99.90;;;20.40;92.47;101959.13;5053096;28;20123;-86
2023/10/07 03:19:22;;;;;;;18.73;8.25;;;20.00;99.90;;;20.32;93.02;101957.56;5053265;28;20557;-85
2023/10/07 03:21:56;;;;;;;22.13;7.68;;;19.90;99.90;;;20.35;93.08;101954.78;5052931;28;20041;-86
2023/10/07 03:24:40;;;;;;;22.42;8.13;;;19.90;99.90;;;20.30;92.97;101954.94;5053175;28;20045;-83
2023/10/07 03:27:13;;;;;;;18.00;6.80;;;19.90;99.90;;;20.35;93.10;101955.69;5053150;28;20053;-86
2023/10/07 03:29:59;;;;;;;19.75;6.90;;;19.90;99.90;;;20.21;92.83;101947.09;5053294;28;20155;-85
2023/10/07 03:32:53;;;;;;;18.10;6.60;;;19.90;99.90;;;20.18;92.97;101935.53;5053046;28;20073;-85
2023/10/07 03:35:44;;;;;;;19.83;6.88;;;19.90;99.90;;;20.32;92.87;101945.03;5053028;28;20479;-85
2023/10/07 03:38:12;;;;;;;17.58;7.15;;;19.90;99.90;;;20.42;92.33;101949.19;5052694;28;20049;-85
2023/10/07 03:40:48;;;;;;;16.48;6.05;;;20.00;99.90;;;20.40;92.57;101948.34;5052634;28;20053;-85
2023/10/07 03:43:17;;;;;;;20.88;6.85;;;20.00;99.90;;;20.32;93.21;101945.03;5052783;28;20399;-86
2023/10/07 03:45:46;;;;;;;16.85;6.30;;;19.90;99.90;;;20.33;93.41;101940.50;5052805;28;20069;-85
2023/10/07 03:48:24;;;;;;;18.23;6.80;;;19.90;99.90;;;20.30;93.52;101938.81;5052497;28;20045;-86
2023/10/07 03:50:59;;;;;;;18.40;7.03;;;19.90;99.90;;;20.38;93.72;101944.81;5052579;28;20123;-86
2023/10/07 03:53:31;;;;;;;18.65;6.80;;;19.90;99.90;;;20.39;93.86;101957.38;5052515;28;20055;-85
2023/10/07 03:56:07;;;;;;;21.85;6.70;;;19.90;99.90;;;20.35;93.93;101950.31;5052505;28;20045;-85
2023/10/07 03:58:36;;;;;;;15.15;5.85;;;19.90;99.90;;;20.38;94.04;101955.59;5052084;28;20049;-86
2023/10/07 04:01:16;;;;;;;23.60;7.30;;;19.90;99.90;;;20.36;93.87;101948.50;5051811;28;20494;-86
2023/10/07 04:03:47;;;;;;;20.10;7.13;;;19.90;99.90;;;20.36;93.67;101945.81;5051798;28;20469;-85
2023/10/07 04:06:17;;;;;;;21.95;7.47;;;19.90;99.90;;;20.37;93.59;101937.72;5052047;28;20053;-86
2023/10/07 04:08:52;;;;;;;22.73;6.95;;;19.90;99.90;;;20.33;93.69;101935.13;5052134;28;20085;-85
2023/10/07 04:11:28;;;;;;;15.93;7.25;;;19.90;99.90;;;20.36;93.90;101930.56;5036900;28;20501;-86
2023/10/07 04:13:57;;;;;;;19.65;6.82;;;19.90;99.90;;;20.25;94.03;101927.28;5052238;28;20410;-86
2023/10/07 04:16:29;;;;;;;19.88;7.53;;;19.80;99.90;;;20.36;94.09;101924.31;5052171;28;20040;-86
2023/10/07 04:19:06;;;;;;;21.13;7.07;;;19.90;99.90;;;20.34;93.93;101927.03;5052190;28;20052;-86
2023/10/07 04:21:39;;;;;;;17.90;6.93;;;19.90;99.90;;;20.31;94.16;101920.84;5051012;28;20434;-85
2023/10/07 04:24:10;;;;;;;18.98;6.70;;;19.90;99.90;;;20.27;94.29;101920.06;5055287;28;20099;-86
2023/10/07 04:26:40;;;;;;;17.40;6.50;;;19.90;99.90;;;20.25;94.41;101927.28;5056307;28;20099;-84
2023/10/07 04:29:14;;;;;;;16.17;6.38;;;19.80;99.90;;;20.31;94.31;101916.38;5056152;28;20086;-85
2023/10/07 04:31:47;;;;;;;23.73;6.53;;;19.80;99.90;;;20.35;94.23;101923.44;5056591;28;20090;-86
2023/10/07 04:34:18;;;;;;;15.95;6.75;;;19.90;99.90;;;20.26;94.19;101926.38;5056116;28;20048;-85
2023/10/07 04:37:11;;;;;;;15.98;6.30;;;19.80;99.90;;;20.29;94.29;101925.38;5056133;28;20049;-85
2023/10/07 04:40:27;;;;;;;16.75;6.75;;;19.80;99.90;;;20.09;94.34;101911.59;5055626;28;20052;-86
2023/10/07 04:42:37;;;;;;;26.60;7.18;;;19.80;99.90;;;20.26;94.34;101931.75;5056057;28;20056;-86
2023/10/07 04:45:23;;;;;;;19.00;7.10;;;19.80;99.90;;;20.30;94.42;101929.84;5056589;28;20048;-86
2023/10/07 04:47:57;;;;;;;19.67;6.97;;;19.80;99.90;;;20.30;94.34;101925.38;5056078;28;20045;-86
2023/10/07 04:50:34;;;;;;;19.45;6.93;;;19.80;99.90;;;20.26;94.36;101923.69;5055825;28;20063;-86
2023/10/07 04:53:05;;;;;;;20.05;7.35;;;19.80;99.90;;;20.14;94.86;101920.41;5056228;28;20053;-86
2023/10/07 04:55:32;;;;;;;23.08;7.75;;;19.70;99.90;;;20.14;95.10;101918.59;5055649;28;20605;-86
2023/10/07 04:58:03;;;;;;;19.38;6.93;;;19.70;99.90;;;20.14;95.27;101928.47;5055450;28;20037;-86
2023/10/07 05:00:41;;;;;;;18.42;6.82;;;19.70;99.90;;;20.20;95.14;101917.59;5055623;28;20119;-85
2023/10/07 05:03:14;;;;;;;17.23;7.15;;;19.70;99.90;;;20.21;94.87;101928.28;5055384;28;20045;-86
2023/10/07 05:05:43;;;;;;;25.20;7.47;;;19.70;99.90;;;20.08;95.30;101924.16;5055636;28;20059;-83
2023/10/07 05:08:16;;;;;;;17.35;6.82;;;19.70;99.90;;;20.16;95.22;101927.50;5054780;28;20124;-86
2023/10/07 05:10:52;;;;;;;19.25;6.75;;;19.70;99.90;;;20.12;95.33;101933.88;5054675;28;20041;-85
2023/10/07 05:13:24;;;;;;;17.80;6.93;;;19.70;99.90;;;20.06;95.74;101939.41;5054744;28;20049;-85
2023/10/07 05:15:52;;;;;;;15.57;6.75;;;19.60;99.90;;;20.01;95.83;101946.72;5054918;28;20128;-86
2023/10/07 05:18:22;;;;;;;20.80;6.60;;;19.60;99.90;;;20.04;96.05;101949.31;5055129;28;20053;-86
2023/10/07 05:20:51;;;;;;;25.07;7.83;;;19.60;99.90;;;20.04;96.22;101943.06;5054803;28;20106;-85
2023/10/07 05:23:19;;;;;;;18.80;6.50;;;19.60;99.90;;;20.03;96.16;101942.19;5054954;28;20071;-87
2023/10/07 05:25:49;;;;;;;19.80;7.30;;;19.60;99.90;;;19.95;96.82;101933.47;5054958;28;20049;-86
2023/10/07 05:28:21;;;;;;;16.17;6.50;;;19.50;99.90;;;19.96;96.59;101928.94;5067085;28;20133;-86
2023/10/07 05:30:52;;;;;;;14.95;6.97;;;19.60;99.90;;;19.90;97.57;101951.47;5045198;28;20437;-86
2023/10/07 05:33:24;;;;;;;18.92;6.80;;;19.50;99.90;;;19.94;97.36;101933.50;5054883;28;20048;-86
2023/10/07 05:36:00;;;;;;;23.80;7.30;;;19.50;99.90;;;20.00;97.05;101936.88;5055461;28;20120;-86
2023/10/07 05:38:28;;;;;;;22.05;7.20;;;19.60;99.90;;;20.01;97.06;101932.41;5054840;28;20045;-86
2023/10/07 05:41:00;;;;;;;18.60;6.85;;;19.50;99.90;;;19.77;96.89;101896.31;5054660;28;20123;-85
2023/10/07 05:43:29;;;;;;;21.35;7.50;;;19.60;99.90;;;20.00;97.14;101957.50;5055252;28;20048;-86
2023/10/07 05:45:58;;;;;;;17.35;7.43;;;19.60;99.90;;;20.03;96.90;101950.25;5055161;28;20133;-85
2023/10/07 05:48:28;;;;;;;25.42;7.60;;;19.60;99.90;;;19.98;96.96;101954.84;5054355;28;20049;-85
2023/10/07 05:50:57;;;;;;;23.47;7.70;;;19.60;99.90;;;20.02;97.16;101955.66;5054826;28;20069;-86
2023/10/07 05:53:25;;;;;;;21.25;8.10;;;19.60;99.90;;;19.92;97.49;101948.78;5054956;28;20367;-74
2023/10/07 05:55:54;;;;;;;21.70;7.68;;;19.50;99.90;;;19.92;97.69;101959.53;5054659;28;20449;-74
2023/10/07 05:58:23;;;;;;;18.05;7.00;;;19.50;99.90;;;19.93;97.67;101950.53;5054862;28;20041;-83
2023/10/07 06:00:51;;;;;;;22.38;8.55;;;19.50;99.90;;;19.88;97.86;101950.63;5054587;28;20056;-83
2023/10/07 06:03:19;;;;;;;24.63;7.80;;;19.40;99.90;;;19.88;97.80;101950.63;5054408;28;20040;-82
2023/10/07 06:05:52;;;;;;;18.42;7.18;;;19.40;99.90;;;19.96;97.74;101945.94;5054237;28;20060;-84
2023/10/07 06:08:20;;;;;;;23.20;7.55;;;19.50;99.90;;;19.97;97.73;101953.09;5054132;28;20041;-83
2023/10/07 06:10:53;;;;;;;17.63;6.88;;;19.50;99.90;;;20.02;97.21;101947.59;5053782;28;20045;-83
2023/10/07 06:13:22;;;;;;;23.13;7.15;;;19.50;99.90;;;19.97;97.42;101953.09;5053627;28;20091;-83
2023/10/07 06:15:50;;;;;;;18.92;7.25;;;19.50;99.90;;;20.01;97.16;101954.78;5053556;28;20044;-80
2023/10/07 06:18:20;;;;;;;17.58;7.82;;;19.50;99.90;;;19.98;97.19;101959.34;5053810;28;20040;-81
2023/10/07 06:20:51;;;;;;;18.70;7.53;;;19.50;99.90;;;19.95;97.20;101952.25;5053049;28;20167;-83
2023/10/07 06:23:24;;;;;;;17.90;7.00;;;19.50;99.90;;;19.90;97.20;101927.31;5053891;28;20049;-82
2023/10/07 06:25:53;;;;;;;21.58;7.55;;;19.50;99.90;;;19.96;97.17;101928.94;5054600;28;20040;-82
2023/10/07 06:28:32;;;;;;;23.15;7.35;;;19.50;99.90;;;19.98;97.21;101922.63;5054312;28;20045;-81
2023/10/07 06:31:10;;;;;;;21.10;7.25;;;19.50;99.90;;;19.95;97.41;101920.03;5053910;28;20075;-82
2023/10/07 06:33:41;;;;;;;21.42;7.97;;;19.50;99.90;;;19.92;97.86;101930.81;5054255;28;20128;-82
2023/10/07 06:36:12;;;;;;;19.98;8.18;;;19.40;99.90;;;19.93;98.16;101940.66;5053503;28;20044;-82
2023/10/07 06:38:51;;;;;;;23.35;8.30;;;19.50;99.90;;;19.96;98.12;101939.69;5054076;28;20094;-83
2023/10/07 06:41:20;;;;;;;22.92;7.75;;;19.50;99.90;;;19.88;98.32;101953.31;5053588;28;20045;-83
2023/10/07 06:43:50;;;;;;;21.48;8.13;;;19.50;99.90;;;19.83;98.56;101949.88;5053434;28;20122;-82
2023/10/07 06:46:20;;;;;;;21.23;8.35;;;19.40;99.90;;;19.85;98.60;101958.78;5053742;28;20417;-81
2023/10/07 06:48:49;;;;;;;23.95;9.38;;;19.40;99.90;;;19.83;98.97;101968.69;5053358;28;20482;-82
2023/10/07 06:51:20;;;;;;;19.55;7.75;;;19.40;99.90;;;19.84;98.99;101975.78;5053263;28;20045;-82
2023/10/07 06:53:48;;;;;;;26.15;7.90;;;19.40;99.90;;;19.88;98.98;101974.78;5053509;28;20121;-81
2023/10/07 06:56:21;;;;;;;21.80;8.35;;;19.40;99.90;;;19.92;98.84;101971.13;5053722;28;20045;-81
2023/10/07 06:58:53;;;;;;;26.90;8.45;;;19.40;99.90;;;19.91;98.94;101971.16;5037799;28;20041;-80
2023/10/07 07:01:50;;;;;;;23.88;7.93;;;19.40;99.90;;;19.86;99.08;101965.91;5053475;28;20142;-81
2023/10/07 07:04:22;;;;;;;25.83;8.65;;;19.40;99.90;;;19.98;99.12;101983.50;5053310;28;20045;-80
2023/10/07 07:07:10;;;;;;;21.58;7.95;;;19.50;99.90;;;20.07;98.99;101976.13;5053935;28;20052;-81
2023/10/07 07:09:51;;;;;;;20.60;8.07;;;19.60;99.90;;;20.03;98.46;101982.50;5053195;28;20049;-82
2023/10/07 07:12:22;;;;;;;20.45;7.80;;;19.60;99.90;;;20.05;98.60;101990.50;5053340;28;20052;-83
2023/10/07 07:14:53;;;;;;;25.40;8.73;;;19.60;99.90;;;20.13;98.39;101994.75;5052448;28;20075;-82
2023/10/07 07:17:35;;;;;;;22.63;8.00;;;19.70;99.90;;;20.19;98.03;102002.69;5052589;28;20044;-81
2023/10/07 07:20:29;;;;;;;26.80;7.93;;;19.70;99.90;;;20.24;98.13;102003.47;5052382;28;20398;-83
2023/10/07 07:23:04;;;;;;;26.23;7.57;;;19.80;99.90;;;20.55;97.29;102003.53;5052208;28;20483;-83
2023/10/07 07:25:36;;;;;;;23.42;7.45;;;20.10;99.90;;;20.68;95.50;102003.16;5052581;28;20044;-83
2023/10/07 07:28:10;;;;;;;21.23;7.32;;;20.30;99.90;;;20.78;93.73;101997.50;5052991;28;20076;-84
2023/10/07 07:30:39;;;;;;;22.90;7.53;;;20.40;99.90;;;20.97;93.09;101998.72;5052972;28;20056;-77
2023/10/07 07:33:08;;;;;;;24.77;6.88;;;20.50;99.90;;;20.02;92.04;101834.75;5052539;28;20045;-76
2023/10/07 07:35:40;;;;;;;25.85;7.10;;;20.60;99.90;;;21.09;90.83;102018.16;5052611;28;20118;-79
2023/10/07 07:38:20;;;;;;;25.27;8.05;;;20.70;99.90;;;21.18;89.86;102023.25;5053022;28;20191;-77
2023/10/07 07:40:52;;;;;;;28.33;8.18;;;20.70;99.90;;;21.25;89.09;102027.50;5052619;28;20094;-78
2023/10/07 07:43:25;;;;;;;19.52;6.60;;;20.80;99.90;;;21.40;88.39;102031.56;5052476;28;20065;-78
2023/10/07 07:45:57;;;;;;;20.77;7.15;;;21.00;99.90;;;21.49;88.25;102015.13;5052312;28;20068;-77
2023/10/07 07:48:26;;;;;;;18.15;7.47;;;21.10;99.90;;;21.55;87.60;102014.94;5052616;28;20175;-75
2023/10/07 07:50:55;;;;;;;22.55;7.07;;;21.20;99.90;;;21.53;87.38;101995.25;5052600;28;20471;-78
2023/10/07 07:53:25;;;;;;;40.45;9.20;;;21.20;99.90;;;21.73;87.13;102018.84;5052340;28;20098;-65
2023/10/07 07:55:56;;;;;;;24.77;7.70;;;21.30;99.90;;;21.82;86.86;102010.50;5052349;28;20053;-66
2023/10/07 07:58:25;;;;;;;27.10;7.32;;;21.40;99.90;;;21.73;86.96;102006.28;5062791;28;20446;-67
2023/10/07 08:01:04;;;;;;;22.58;7.50;;;21.40;99.90;;;21.67;87.20;102001.06;5048484;28;20064;-66
2023/10/07 08:03:38;;;;;;;29.00;9.13;;;21.30;99.90;;;21.66;87.39;102015.47;5057023;28;20041;-68
2023/10/07 08:06:11;;;;;;;21.77;8.32;;;21.30;99.90;;;21.70;87.30;102009.03;5056159;28;20103;-67
2023/10/07 08:08:41;;;;;;;23.15;7.90;;;21.30;99.90;;;21.58;87.46;102013.00;5056291;28;20057;-67
2023/10/07 08:11:13;;;;;;;22.13;7.60;;;21.20;99.90;;;21.67;87.39;102013.66;5056210;28;20127;-67
2023/10/07 08:13:42;;;;;;;25.88;8.40;;;21.20;99.90;;;21.72;87.31;102019.78;5056314;28;20106;-67
2023/10/07 08:16:16;;;;;;;23.65;7.72;;;21.30;99.90;;;21.83;87.19;102026.63;5054717;28;20136;-66
2023/10/07 08:18:44;;;;;;;25.13;7.80;;;21.40;99.90;;;21.94;87.01;102018.19;5055790;28;20398;-67
2023/10/07 08:21:14;;;;;;;25.92;8.07;;;21.50;99.90;;;21.86;86.10;102021.13;5055624;28;20080;-66
2023/10/07 08:23:46;;;;;;;25.40;8.32;;;21.50;99.90;;;21.65;85.75;101978.69;5055750;28;20049;-67
2023/10/07 08:26:20;;;;;;;26.33;8.45;;;21.50;99.90;;;21.88;85.60;102013.88;5056283;28;20045;-67
2023/10/07 08:28:59;;;;;;;27.73;8.30;;;21.50;99.90;;;21.93;85.65;102016.44;5055825;28;20033;-66
2023/10/07 08:31:39;;;;;;;22.73;7.65;;;21.50;99.90;;;21.86;85.16;102013.06;5040353;28;20490;-66
2023/10/07 08:34:12;;;;;;;31.13;8.95;;;21.50;99.90;;;21.91;85.06;102018.31;5056253;28;20059;-67
2023/10/07 08:36:44;;;;;;;23.88;7.97;;;21.60;99.90;;;21.91;84.60;102016.47;5055950;28;20053;-67
2023/10/07 08:39:17;;;;;;;33.53;8.48;;;21.50;99.90;;;21.91;85.17;102002.13;5056065;28;20057;-66
2023/10/07 08:41:52;;;;;;;27.85;8.75;;;21.60;99.90;;;22.06;84.67;102010.59;5055773;28;20040;-68
2023/10/07 08:44:29;;;;;;;25.45;8.45;;;21.60;99.90;;;22.26;84.55;102020.69;5054711;28;20041;-66
2023/10/07 08:47:05;;;;;;;29.38;9.13;;;21.80;99.90;;;22.20;83.93;102008.28;5055754;28;20048;-67
2023/10/07 08:49:36;;;;;;;29.95;9.13;;;21.80;99.90;;;21.99;83.88;102010.84;5056003;28;20045;-66
2023/10/07 08:52:08;;;;;;;26.35;8.50;;;21.70;99.90;;;21.78;84.05;102022.25;5055608;28;20044;-70
2023/10/07 08:54:44;;;;;;;29.55;9.57;;;21.50;99.90;;;21.87;84.03;102033.69;5056156;28;20049;-67
2023/10/07 08:57:19;;;;;;;23.20;8.05;;;21.50;99.90;;;21.93;84.10;102040.69;5040408;28;20119;-68
2023/10/07 08:59:52;;;;;;;26.90;8.98;;;21.50;99.90;;;21.84;84.64;102043.66;5055545;28;20048;-68
2023/10/07 09:02:27;;;;;;;29.58;8.95;;;21.40;99.90;;;21.63;84.51;102034.44;5055589;28;20056;-68
2023/10/07 09:04:58;;;;;;;28.83;8.73;;;21.30;99.90;;;21.61;84.80;102025.50;5055298;28;20049;-68
2023/10/07 09:07:31;;;;;;;32.50;9.65;;;21.20;99.90;;;21.56;84.73;102024.78;5055174;28;20052;-68
2023/10/07 09:10:10;;;;;;;31.58;9.93;;;21.10;99.90;;;21.51;85.32;102013.25;5054607;28;20053;-70
2023/10/07 09:12:45;;;;;;;29.85;9.45;;;21.10;99.90;;;21.48;86.25;102019.63;5054089;28;20049;-70
2023/10/07 09:15:21;;;;;;;32.60;10.25;;;21.10;99.90;;;21.77;86.51;102020.53;5055303;28;20076;-70
2023/10/07 09:17:49;;;;;;;29.05;9.90;;;21.30;99.90;;;22.18;85.64;102012.84;5055580;28;20049;-69
2023/10/07 09:20:29;;;;;;;28.45;9.07;;;21.70;99.90;;;22.44;83.63;102001.16;5054502;28;20040;-70
2023/10/07 09:23:06;;;;;;;31.40;9.80;;;22.00;99.90;;;22.68;81.81;101999.44;5054435;28;20055;-68
2023/10/07 09:25:36;;;;;;;32.42;9.95;;;22.30;99.90;;;22.83;79.62;102012.38;5054820;28;20041;-69
2023/10/07 09:28:07;;;;;;;31.50;9.75;;;22.50;99.90;;;23.02;78.67;102008.94;5054617;28;20107;-70
2023/10/07 09:30:37;;;;;;;22.35;8.75;;;22.70;99.90;;;23.20;77.54;102029.84;5039089;28;20091;-69
2023/10/07 09:33:13;;;;;;;;;;;22.80;99.90;;;23.38;75.64;102027.41;5055565;28;20048;-69
2023/10/07 09:35:43;;;;;;;27.17;7.93;;;23.00;99.90;;;23.56;75.64;102035.66;5055238;28;19920;-69
2023/10/07 09:38:26;;;;;;;25.00;8.77;;;23.10;99.90;;;23.84;74.36;102043.56;5054656;28;20047;-72
2023/10/07 09:41:12;;;;;;;24.05;8.18;;;23.40;99.90;;;23.98;73.48;102042.03;5054612;28;20483;-67
2023/10/07 09:43:44;;;;;;;24.60;8.18;;;23.70;99.90;;;24.12;72.03;102055.91;5053519;28;20041;-69
2023/10/07 09:46:24;;;;;;;27.88;8.85;;;23.80;99.90;;;24.31;71.24;102049.75;5054574;28;20044;-68
2023/10/07 09:49:06;;;;;;;21.80;7.47;;;24.00;99.90;;;24.62;70.07;102051.03;5055066;28;20040;-67
2023/10/07 09:51:41;;;;;;;19.63;6.60;;;24.20;99.90;;;24.55;67.94;102059.50;5054485;28;20047;-67
2023/10/07 09:54:37;;;;;;;20.83;6.78;;;24.30;99.90;;;24.67;67.63;102073.41;5054996;28;20056;-67
2023/10/07 09:57:29;;;;;;;15.65;6.70;;;24.30;99.90;;;24.92;67.27;102071.41;5054347;28;20071;-67
2023/10/07 10:03:39;;;;;;;15.23;6.18;;;24.70;99.90;;;25.20;65.09;102084.59;5038976;28;20084;-69
2023/10/07 10:06:25;;;;;;;16.55;6.05;;;24.90;99.90;;;25.23;64.29;102065.47;5038669;28;20148;-66
2023/10/07 10:08:57;;;;;;;15.40;6.72;;;25.00;99.90;;;25.20;64.35;102056.59;5054240;28;20084;-67
2023/10/07 10:11:43;;;;;;;22.83;6.90;;;24.90;99.90;;;25.11;64.26;102047.06;5054276;28;20072;-65
2023/10/07 10:14:26;;;;;;;17.63;5.88;;;24.80;99.90;;;25.08;64.02;102049.91;5040078;28;20099;-65
2023/10/07 10:16:57;;;;;;;16.95;6.35;;;24.80;99.90;;;24.97;64.80;102049.53;5054083;28;20040;-64
2023/10/07 10:19:28;;;;;;;16.88;6.38;;;24.60;99.90;;;24.80;65.21;102050.28;5054193;28;20073;-65
2023/10/07 10:22:10;;;;;;;15.68;6.28;;;24.50;99.90;;;24.73;65.69;102054.22;5052827;28;20071;-64
2023/10/07 10:24:43;;;;;;;15.40;6.45;;;24.40;99.90;;;24.71;66.39;102060.59;5053512;28;20083;-65
2023/10/07 10:27:13;;;;;;;19.58;6.85;;;24.40;99.90;;;24.72;66.51;102055.16;5052303;28;20104;-63
2023/10/07 10:29:56;;;;;;;17.55;6.68;;;24.40;99.90;;;24.62;66.20;102055.59;5053444;28;20056;-64
2023/10/07 10:32:29;;;;;;;17.52;6.63;;;24.30;99.90;;;24.75;66.86;102063.16;5053336;28;20122;-64
2023/10/07 10:35:03;;;;;;;14.55;6.55;;;24.30;99.90;;;24.70;66.49;102069.69;5053769;28;20137;-64
2023/10/07 10:37:32;;;;;;;15.40;6.85;;;24.30;99.90;;;24.57;66.62;102068.44;5053799;28;20052;-65
2023/10/07 10:40:12;;;;;;;18.50;6.65;;;24.30;99.90;;;24.50;67.16;102073.25;5053409;28;20120;-65